LEWISTON (LEW)

Elevation: 1870' · TRINITY R basin · Operator: US Bureau of Reclamation

Provisional data, subject to change.
Query executed Saturday at 7:47:38   clock

Select a sensor type for a plot of data.
Note: Reservoir Flows are daily averages.

Earlier

Date RES ELE    STORAGE    RES CHG    OUTFLOW    INFLOW    EVAP    RIV REL    SPILL    DIS PWR   
 FEET   AF   AF   CFS   CFS   CFS   CFS   CFS   CFS  
01/02/2015 1900.80 13764 0 593 593 0 302 147 0
01/03/2015 1900.91 13845 81 564 605 0 300 145 0
01/04/2015 1900.98 13896 51 315 343 2 301 146 0
01/05/2015 1900.82 13779 -117 580 522 1 303 148 0
01/06/2015 1900.81 13771 -8 466 462 0 302 147 0
01/07/2015 1901.09 13978 207 313 419 2 299 144 0
01/08/2015 1900.98 13896 -82 316 275 0 302 147 0
01/09/2015 1901.10 13986 90 314 359 0 300 145 0
01/10/2015 1901.20 14061 75 316 354 0 302 147 0
01/11/2015 1901.13 14008 -53 316 289 0 302 147 0
01/12/2015 1901.06 13956 -52 315 289 0 301 146 0
01/13/2015 1901.17 14038 82 315 356 0 301 146 0
01/14/2015 1901.07 13963 -75 682 645 1 304 149 0
01/15/2015 1901.03 13933 -30 318 303 0 304 149 0
01/16/2015 1901.09 13978 45 318 341 0 304 149 0
01/17/2015 1901.07 13963 -15 318 311 1 304 149 0
01/18/2015 1901.06 13956 -7 318 315 1 304 149 0
01/19/2015 1901.21 14068 112 318 375 1 304 149 0
01/20/2015 1900.98 13896 -172 595 509 1 304 149 0
01/21/2015 1901.07 13963 67 322 356 0 305 150 0
01/22/2015 1901.05 13948 -15 319 312 1 305 150 0
01/23/2015 1901.25 14098 150 320 397 1 306 151 0
01/24/2015 1901.32 14150 52 321 347 0 307 152 0
01/25/2015 1901.42 14225 75 323 362 1 309 154 0
01/26/2015 1901.46 14255 30 323 339 1 309 154 0
01/27/2015 1901.06 13956 -299 522 371 0 308 153 0
01/28/2015 1900.84 13793 -163 321 240 1 307 152 0
01/29/2015 1900.92 13852 59 329 360 1 305 150 0
01/30/2015 1901.01 13918 66 321 354 0 307 152 0
01/31/2015 -- -- -- -- -- -- -- -- --

Later | Latest

Warning! This data is preliminary and subject to revision.

Show LEW Map | Plot LEW Data | 1 Month LEW Data | Real-Time LEW Data | LEW Info